sensor_id;sensor_type;location;lat;lon;timestamp;P1;durP1;ratioP1;P2;durP2;ratioP2
32130;SDS011;18639;50.716;7.086;2023-05-20T00:01:31;2.00;;;1.05;;
32130;SDS011;18639;50.716;7.086;2023-05-20T00:03:56;1.80;;;1.17;;
32130;SDS011;18639;50.716;7.086;2023-05-20T00:06:21;1.00;;;0.90;;
32130;SDS011;18639;50.716;7.086;2023-05-20T00:08:47;4.28;;;0.95;;
32130;SDS011;18639;50.716;7.086;2023-05-20T00:11:12;2.42;;;1.10;;
32130;SDS011;18639;50.716;7.086;2023-05-20T00:13:38;1.15;;;0.88;;
32130;SDS011;18639;50.716;7.086;2023-05-20T00:16:03;1.45;;;1.00;;
32130;SDS011;18639;50.716;7.086;2023-05-20T00:18:29;2.97;;;1.00;;
32130;SDS011;18639;50.716;7.086;2023-05-20T00:20:56;3.03;;;1.00;;
32130;SDS011;18639;50.716;7.086;2023-05-20T00:23:21;1.33;;;0.90;;
32130;SDS011;18639;50.716;7.086;2023-05-20T00:25:47;1.00;;;0.90;;
32130;SDS011;18639;50.716;7.086;2023-05-20T00:28:12;1.60;;;0.90;;
32130;SDS011;18639;50.716;7.086;2023-05-20T00:30:40;1.30;;;1.02;;
32130;SDS011;18639;50.716;7.086;2023-05-20T00:33:06;1.63;;;1.10;;
32130;SDS011;18639;50.716;7.086;2023-05-20T00:35:31;1.30;;;0.90;;
32130;SDS011;18639;50.716;7.086;2023-05-20T00:37:57;2.47;;;1.20;;
32130;SDS011;18639;50.716;7.086;2023-05-20T00:40:22;4.50;;;1.10;;
32130;SDS011;18639;50.716;7.086;2023-05-20T00:42:48;2.47;;;1.23;;
32130;SDS011;18639;50.716;7.086;2023-05-20T00:45:14;1.10;;;0.83;;
32130;SDS011;18639;50.716;7.086;2023-05-20T00:47:39;1.70;;;1.10;;
32130;SDS011;18639;50.716;7.086;2023-05-20T00:50:06;1.15;;;0.90;;
32130;SDS011;18639;50.716;7.086;2023-05-20T00:52:32;2.05;;;1.10;;
32130;SDS011;18639;50.716;7.086;2023-05-20T00:54:59;1.95;;;0.95;;
32130;SDS011;18639;50.716;7.086;2023-05-20T00:57:25;1.88;;;0.95;;
32130;SDS011;18639;50.716;7.086;2023-05-20T00:59:50;1.38;;;0.75;;
32130;SDS011;18639;50.716;7.086;2023-05-20T01:02:16;2.45;;;1.00;;
32130;SDS011;18639;50.716;7.086;2023-05-20T01:04:41;2.03;;;1.10;;
32130;SDS011;18639;50.716;7.086;2023-05-20T01:07:11;1.13;;;1.00;;
32130;SDS011;18639;50.716;7.086;2023-05-20T01:09:38;1.27;;;0.80;;
32130;SDS011;18639;50.716;7.086;2023-05-20T01:17:32;1.33;;;0.90;;
32130;SDS011;18639;50.716;7.086;2023-05-20T01:20:01;1.35;;;1.00;;
32130;SDS011;18639;50.716;7.086;2023-05-20T01:22:29;1.42;;;0.98;;
32130;SDS011;18639;50.716;7.086;2023-05-20T01:24:55;1.27;;;1.02;;
32130;SDS011;18639;50.716;7.086;2023-05-20T01:27:21;4.05;;;1.27;;
32130;SDS011;18639;50.716;7.086;2023-05-20T01:29:48;1.63;;;0.80;;
32130;SDS011;18639;50.716;7.086;2023-05-20T01:32:18;1.23;;;0.85;;
32130;SDS011;18639;50.716;7.086;2023-05-20T01:34:49;2.33;;;1.20;;
32130;SDS011;18639;50.716;7.086;2023-05-20T01:37:16;1.40;;;0.98;;
32130;SDS011;18639;50.716;7.086;2023-05-20T01:39:43;2.35;;;1.20;;
32130;SDS011;18639;50.716;7.086;2023-05-20T01:42:09;1.20;;;0.93;;
32130;SDS011;18639;50.716;7.086;2023-05-20T01:44:35;1.27;;;0.80;;
32130;SDS011;18639;50.716;7.086;2023-05-20T01:47:01;1.98;;;1.00;;
32130;SDS011;18639;50.716;7.086;2023-05-20T01:49:26;1.30;;;0.82;;
32130;SDS011;18639;50.716;7.086;2023-05-20T01:51:52;1.58;;;1.05;;
32130;SDS011;18639;50.716;7.086;2023-05-20T01:54:17;1.25;;;0.90;;
32130;SDS011;18639;50.716;7.086;2023-05-20T01:56:43;1.83;;;1.05;;
32130;SDS011;18639;50.716;7.086;2023-05-20T01:59:10;2.30;;;1.15;;
32130;SDS011;18639;50.716;7.086;2023-05-20T02:01:35;3.20;;;1.05;;
32130;SDS011;18639;50.716;7.086;2023-05-20T02:04:00;2.75;;;0.98;;
32130;SDS011;18639;50.716;7.086;2023-05-20T02:06:26;1.40;;;0.70;;
32130;SDS011;18639;50.716;7.086;2023-05-20T02:08:51;1.88;;;1.08;;
32130;SDS011;18639;50.716;7.086;2023-05-20T02:11:16;1.95;;;1.08;;
32130;SDS011;18639;50.716;7.086;2023-05-20T02:13:41;3.25;;;1.15;;
32130;SDS011;18639;50.716;7.086;2023-05-20T02:16:07;1.00;;;0.90;;
32130;SDS011;18639;50.716;7.086;2023-05-20T02:18:32;1.65;;;1.20;;
32130;SDS011;18639;50.716;7.086;2023-05-20T02:21:02;1.60;;;1.00;;
32130;SDS011;18639;50.716;7.086;2023-05-20T02:23:28;1.60;;;0.90;;
32130;SDS011;18639;50.716;7.086;2023-05-20T02:25:56;1.48;;;1.10;;
32130;SDS011;18639;50.716;7.086;2023-05-20T02:28:22;2.28;;;1.30;;
32130;SDS011;18639;50.716;7.086;2023-05-20T02:30:47;4.22;;;0.90;;
32130;SDS011;18639;50.716;7.086;2023-05-20T02:33:15;1.23;;;0.90;;
32130;SDS011;18639;50.716;7.086;2023-05-20T02:35:40;2.10;;;0.80;;
32130;SDS011;18639;50.716;7.086;2023-05-20T02:38:05;1.88;;;1.00;;
32130;SDS011;18639;50.716;7.086;2023-05-20T02:40:31;4.32;;;1.23;;
32130;SDS011;18639;50.716;7.086;2023-05-20T02:42:56;1.17;;;0.80;;
32130;SDS011;18639;50.716;7.086;2023-05-20T02:45:22;1.55;;;0.90;;
32130;SDS011;18639;50.716;7.086;2023-05-20T02:47:47;1.52;;;1.02;;
32130;SDS011;18639;50.716;7.086;2023-05-20T02:50:12;3.90;;;1.10;;
32130;SDS011;18639;50.716;7.086;2023-05-20T02:52:37;1.17;;;0.82;;
32130;SDS011;18639;50.716;7.086;2023-05-20T02:55:06;1.42;;;1.08;;
32130;SDS011;18639;50.716;7.086;2023-05-20T02:57:32;1.40;;;0.90;;
32130;SDS011;18639;50.716;7.086;2023-05-20T02:59:59;1.88;;;1.20;;
32130;SDS011;18639;50.716;7.086;2023-05-20T03:02:24;1.45;;;0.90;;
32130;SDS011;18639;50.716;7.086;2023-05-20T03:04:49;1.83;;;0.90;;
32130;SDS011;18639;50.716;7.086;2023-05-20T03:07:17;3.70;;;1.00;;
32130;SDS011;18639;50.716;7.086;2023-05-20T03:09:45;1.15;;;0.82;;
32130;SDS011;18639;50.716;7.086;2023-05-20T03:12:10;1.55;;;1.10;;
32130;SDS011;18639;50.716;7.086;2023-05-20T03:14:36;3.58;;;1.20;;
32130;SDS011;18639;50.716;7.086;2023-05-20T03:17:01;4.85;;;0.90;;
32130;SDS011;18639;50.716;7.086;2023-05-20T03:19:26;1.23;;;0.93;;
32130;SDS011;18639;50.716;7.086;2023-05-20T03:21:51;1.15;;;0.75;;
32130;SDS011;18639;50.716;7.086;2023-05-20T03:24:17;1.65;;;1.20;;
32130;SDS011;18639;50.716;7.086;2023-05-20T03:26:42;2.05;;;0.90;;
32130;SDS011;18639;50.716;7.086;2023-05-20T03:29:08;2.05;;;1.00;;
32130;SDS011;18639;50.716;7.086;2023-05-20T03:31:34;1.52;;;1.00;;
32130;SDS011;18639;50.716;7.086;2023-05-20T03:33:59;1.75;;;1.10;;
32130;SDS011;18639;50.716;7.086;2023-05-20T03:36:24;2.45;;;1.10;;
32130;SDS011;18639;50.716;7.086;2023-05-20T03:38:50;1.17;;;0.90;;
32130;SDS011;18639;50.716;7.086;2023-05-20T03:41:15;1.30;;;0.90;;
32130;SDS011;18639;50.716;7.086;2023-05-20T03:43:41;1.52;;;1.00;;
32130;SDS011;18639;50.716;7.086;2023-05-20T03:46:06;2.05;;;1.05;;
32130;SDS011;18639;50.716;7.086;2023-05-20T03:48:31;1.35;;;1.00;;
32130;SDS011;18639;50.716;7.086;2023-05-20T03:50:56;1.48;;;0.90;;
32130;SDS011;18639;50.716;7.086;2023-05-20T03:53:22;1.25;;;0.98;;
32130;SDS011;18639;50.716;7.086;2023-05-20T03:55:47;1.70;;;0.95;;
32130;SDS011;18639;50.716;7.086;2023-05-20T03:58:13;1.40;;;0.93;;
32130;SDS011;18639;50.716;7.086;2023-05-20T04:00:39;3.30;;;1.30;;
32130;SDS011;18639;50.716;7.086;2023-05-20T04:03:05;2.13;;;0.90;;
32130;SDS011;18639;50.716;7.086;2023-05-20T04:05:31;1.35;;;1.00;;
32130;SDS011;18639;50.716;7.086;2023-05-20T04:07:56;1.50;;;1.00;;
32130;SDS011;18639;50.716;7.086;2023-05-20T04:10:21;1.35;;;0.75;;
32130;SDS011;18639;50.716;7.086;2023-05-20T04:12:47;1.70;;;0.80;;
32130;SDS011;18639;50.716;7.086;2023-05-20T04:15:12;1.08;;;0.95;;
32130;SDS011;18639;50.716;7.086;2023-05-20T04:17:39;1.15;;;1.02;;
32130;SDS011;18639;50.716;7.086;2023-05-20T04:20:04;2.00;;;1.10;;
32130;SDS011;18639;50.716;7.086;2023-05-20T04:22:31;2.45;;;1.02;;
32130;SDS011;18639;50.716;7.086;2023-05-20T04:24:56;2.13;;;1.17;;
32130;SDS011;18639;50.716;7.086;2023-05-20T04:27:23;1.58;;;1.15;;
32130;SDS011;18639;50.716;7.086;2023-05-20T04:29:49;1.40;;;0.77;;
32130;SDS011;18639;50.716;7.086;2023-05-20T04:32:16;1.00;;;0.90;;
32130;SDS011;18639;50.716;7.086;2023-05-20T04:34:43;1.88;;;1.20;;
32130;SDS011;18639;50.716;7.086;2023-05-20T04:37:10;0.85;;;0.85;;
32130;SDS011;18639;50.716;7.086;2023-05-20T04:39:36;2.15;;;1.08;;
32130;SDS011;18639;50.716;7.086;2023-05-20T04:42:02;2.10;;;0.98;;
32130;SDS011;18639;50.716;7.086;2023-05-20T04:44:28;2.40;;;1.20;;
32130;SDS011;18639;50.716;7.086;2023-05-20T04:46:54;9.07;;;1.60;;
32130;SDS011;18639;50.716;7.086;2023-05-20T04:49:21;2.17;;;1.10;;
32130;SDS011;18639;50.716;7.086;2023-05-20T04:51:49;1.77;;;1.10;;
32130;SDS011;18639;50.716;7.086;2023-05-20T04:54:15;1.20;;;1.10;;
32130;SDS011;18639;50.716;7.086;2023-05-20T04:56:42;1.88;;;1.27;;
32130;SDS011;18639;50.716;7.086;2023-05-20T04:59:08;2.90;;;1.25;;
32130;SDS011;18639;50.716;7.086;2023-05-20T05:01:34;2.13;;;1.27;;
32130;SDS011;18639;50.716;7.086;2023-05-20T05:04:00;1.10;;;0.80;;
32130;SDS011;18639;50.716;7.086;2023-05-20T05:06:25;2.03;;;1.40;;
32130;SDS011;18639;50.716;7.086;2023-05-20T05:08:50;6.05;;;1.13;;
32130;SDS011;18639;50.716;7.086;2023-05-20T05:11:15;1.60;;;1.00;;
32130;SDS011;18639;50.716;7.086;2023-05-20T05:13:41;1.73;;;1.02;;
32130;SDS011;18639;50.716;7.086;2023-05-20T05:16:06;3.53;;;1.30;;
32130;SDS011;18639;50.716;7.086;2023-05-20T05:18:31;1.65;;;0.95;;
32130;SDS011;18639;50.716;7.086;2023-05-20T05:21:00;2.20;;;1.17;;
32130;SDS011;18639;50.716;7.086;2023-05-20T05:23:26;2.63;;;1.30;;
32130;SDS011;18639;50.716;7.086;2023-05-20T05:25:52;1.73;;;1.02;;
32130;SDS011;18639;50.716;7.086;2023-05-20T05:28:17;1.85;;;1.20;;
32130;SDS011;18639;50.716;7.086;2023-05-20T05:30:43;1.20;;;0.90;;
32130;SDS011;18639;50.716;7.086;2023-05-20T05:33:08;1.98;;;1.20;;
32130;SDS011;18639;50.716;7.086;2023-05-20T05:35:33;2.85;;;1.02;;
32130;SDS011;18639;50.716;7.086;2023-05-20T05:37:58;1.75;;;1.25;;
32130;SDS011;18639;50.716;7.086;2023-05-20T05:40:24;2.00;;;1.30;;
32130;SDS011;18639;50.716;7.086;2023-05-20T05:42:49;3.60;;;1.30;;
32130;SDS011;18639;50.716;7.086;2023-05-20T05:45:14;3.20;;;1.20;;
32130;SDS011;18639;50.716;7.086;2023-05-20T05:47:41;4.18;;;1.20;;
32130;SDS011;18639;50.716;7.086;2023-05-20T05:50:06;2.97;;;1.30;;
32130;SDS011;18639;50.716;7.086;2023-05-20T05:52:32;3.60;;;1.02;;
32130;SDS011;18639;50.716;7.086;2023-05-20T05:54:57;2.35;;;1.35;;
32130;SDS011;18639;50.716;7.086;2023-05-20T05:57:23;1.95;;;1.30;;
32130;SDS011;18639;50.716;7.086;2023-05-20T05:59:48;3.50;;;1.30;;
32130;SDS011;18639;50.716;7.086;2023-05-20T06:02:13;2.10;;;1.40;;
32130;SDS011;18639;50.716;7.086;2023-05-20T06:04:39;3.35;;;1.30;;
32130;SDS011;18639;50.716;7.086;2023-05-20T06:07:04;2.20;;;1.25;;
32130;SDS011;18639;50.716;7.086;2023-05-20T06:09:29;2.30;;;1.55;;
32130;SDS011;18639;50.716;7.086;2023-05-20T06:11:55;3.13;;;1.70;;
32130;SDS011;18639;50.716;7.086;2023-05-20T06:14:20;5.28;;;1.55;;
32130;SDS011;18639;50.716;7.086;2023-05-20T06:16:45;2.35;;;1.40;;
32130;SDS011;18639;50.716;7.086;2023-05-20T06:19:11;2.45;;;1.30;;
32130;SDS011;18639;50.716;7.086;2023-05-20T06:21:36;3.38;;;1.27;;
32130;SDS011;18639;50.716;7.086;2023-05-20T06:24:02;3.75;;;1.23;;
32130;SDS011;18639;50.716;7.086;2023-05-20T06:26:28;2.55;;;1.40;;
32130;SDS011;18639;50.716;7.086;2023-05-20T06:28:53;2.10;;;1.27;;
32130;SDS011;18639;50.716;7.086;2023-05-20T06:31:18;2.47;;;1.15;;
32130;SDS011;18639;50.716;7.086;2023-05-20T06:33:44;2.00;;;1.30;;
32130;SDS011;18639;50.716;7.086;2023-05-20T06:36:09;2.33;;;1.25;;
32130;SDS011;18639;50.716;7.086;2023-05-20T06:38:35;2.33;;;1.20;;
32130;SDS011;18639;50.716;7.086;2023-05-20T06:41:00;3.05;;;1.40;;
32130;SDS011;18639;50.716;7.086;2023-05-20T06:43:25;1.85;;;1.20;;
32130;SDS011;18639;50.716;7.086;2023-05-20T06:45:51;2.05;;;1.25;;
32130;SDS011;18639;50.716;7.086;2023-05-20T06:48:18;2.25;;;1.20;;
32130;SDS011;18639;50.716;7.086;2023-05-20T06:50:43;3.42;;;1.65;;
32130;SDS011;18639;50.716;7.086;2023-05-20T06:53:09;2.58;;;1.15;;
32130;SDS011;18639;50.716;7.086;2023-05-20T06:55:36;3.03;;;1.35;;
32130;SDS011;18639;50.716;7.086;2023-05-20T06:58:01;2.28;;;1.40;;
32130;SDS011;18639;50.716;7.086;2023-05-20T07:00:27;1.77;;;1.25;;
32130;SDS011;18639;50.716;7.086;2023-05-20T07:02:52;2.35;;;1.30;;
32130;SDS011;18639;50.716;7.086;2023-05-20T07:05:17;2.15;;;1.30;;
32130;SDS011;18639;50.716;7.086;2023-05-20T07:07:42;3.45;;;1.80;;
32130;SDS011;18639;50.716;7.086;2023-05-20T07:10:08;2.17;;;1.20;;
32130;SDS011;18639;50.716;7.086;2023-05-20T07:12:33;2.35;;;1.35;;
32130;SDS011;18639;50.716;7.086;2023-05-20T07:14:58;3.85;;;1.30;;
32130;SDS011;18639;50.716;7.086;2023-05-20T07:17:24;2.05;;;1.42;;
32130;SDS011;18639;50.716;7.086;2023-05-20T07:19:50;2.70;;;1.35;;
32130;SDS011;18639;50.716;7.086;2023-05-20T07:22:15;2.80;;;1.40;;
32130;SDS011;18639;50.716;7.086;2023-05-20T07:24:41;2.75;;;1.42;;
32130;SDS011;18639;50.716;7.086;2023-05-20T07:27:06;2.25;;;1.40;;
32130;SDS011;18639;50.716;7.086;2023-05-20T07:29:32;3.08;;;1.40;;
32130;SDS011;18639;50.716;7.086;2023-05-20T07:31:58;1.90;;;1.17;;
32130;SDS011;18639;50.716;7.086;2023-05-20T07:34:23;2.13;;;1.27;;
32130;SDS011;18639;50.716;7.086;2023-05-20T07:36:48;3.60;;;1.35;;
32130;SDS011;18639;50.716;7.086;2023-05-20T07:39:15;2.65;;;1.20;;
32130;SDS011;18639;50.716;7.086;2023-05-20T07:41:40;5.97;;;1.40;;
32130;SDS011;18639;50.716;7.086;2023-05-20T07:44:05;2.08;;;1.20;;
32130;SDS011;18639;50.716;7.086;2023-05-20T07:46:33;2.33;;;1.20;;
32130;SDS011;18639;50.716;7.086;2023-05-20T07:48:58;2.05;;;1.23;;
32130;SDS011;18639;50.716;7.086;2023-05-20T07:51:24;2.58;;;1.30;;
32130;SDS011;18639;50.716;7.086;2023-05-20T07:53:49;1.50;;;1.05;;
32130;SDS011;18639;50.716;7.086;2023-05-20T07:56:14;1.65;;;1.13;;
32130;SDS011;18639;50.716;7.086;2023-05-20T07:58:40;3.60;;;1.38;;
32130;SDS011;18639;50.716;7.086;2023-05-20T08:01:06;3.50;;;1.25;;
32130;SDS011;18639;50.716;7.086;2023-05-20T08:03:33;2.17;;;1.20;;
32130;SDS011;18639;50.716;7.086;2023-05-20T08:05:58;1.88;;;1.10;;
32130;SDS011;18639;50.716;7.086;2023-05-20T08:08:24;2.38;;;1.25;;
32130;SDS011;18639;50.716;7.086;2023-05-20T08:10:49;2.50;;;1.30;;
32130;SDS011;18639;50.716;7.086;2023-05-20T08:13:15;2.88;;;1.65;;
32130;SDS011;18639;50.716;7.086;2023-05-20T08:15:41;2.25;;;1.25;;
32130;SDS011;18639;50.716;7.086;2023-05-20T08:18:06;2.72;;;1.50;;
32130;SDS011;18639;50.716;7.086;2023-05-20T08:20:31;2.20;;;1.35;;
32130;SDS011;18639;50.716;7.086;2023-05-20T08:22:57;2.47;;;1.40;;
32130;SDS011;18639;50.716;7.086;2023-05-20T08:25:22;2.33;;;1.33;;
32130;SDS011;18639;50.716;7.086;2023-05-20T08:27:47;1.67;;;1.02;;
32130;SDS011;18639;50.716;7.086;2023-05-20T08:30:13;1.67;;;1.05;;
32130;SDS011;18639;50.716;7.086;2023-05-20T08:32:38;4.22;;;1.40;;
32130;SDS011;18639;50.716;7.086;2023-05-20T08:35:03;1.27;;;1.00;;
32130;SDS011;18639;50.716;7.086;2023-05-20T08:37:29;3.10;;;1.58;;
32130;SDS011;18639;50.716;7.086;2023-05-20T08:39:54;2.70;;;1.50;;
32130;SDS011;18639;50.716;7.086;2023-05-20T08:42:23;1.75;;;1.23;;
32130;SDS011;18639;50.716;7.086;2023-05-20T08:44:50;2.47;;;1.40;;
32130;SDS011;18639;50.716;7.086;2023-05-20T08:47:16;2.28;;;1.45;;
32130;SDS011;18639;50.716;7.086;2023-05-20T08:49:43;2.10;;;1.20;;
32130;SDS011;18639;50.716;7.086;2023-05-20T08:52:09;2.65;;;1.40;;
32130;SDS011;18639;50.716;7.086;2023-05-20T08:54:44;1.75;;;1.17;;
32130;SDS011;18639;50.716;7.086;2023-05-20T08:57:11;2.50;;;1.73;;
32130;SDS011;18639;50.716;7.086;2023-05-20T08:59:38;2.08;;;1.30;;
32130;SDS011;18639;50.716;7.086;2023-05-20T09:02:07;3.22;;;1.50;;
32130;SDS011;18639;50.716;7.086;2023-05-20T09:04:33;1.83;;;1.23;;
32130;SDS011;18639;50.716;7.086;2023-05-20T09:06:58;1.52;;;1.20;;
32130;SDS011;18639;50.716;7.086;2023-05-20T09:09:23;2.20;;;1.27;;
32130;SDS011;18639;50.716;7.086;2023-05-20T09:11:49;2.17;;;1.35;;
32130;SDS011;18639;50.716;7.086;2023-05-20T09:14:14;1.90;;;1.25;;
32130;SDS011;18639;50.716;7.086;2023-05-20T09:16:39;2.15;;;1.20;;
32130;SDS011;18639;50.716;7.086;2023-05-20T09:19:05;2.03;;;1.23;;
32130;SDS011;18639;50.716;7.086;2023-05-20T09:21:31;2.00;;;1.30;;
32130;SDS011;18639;50.716;7.086;2023-05-20T09:23:57;2.25;;;1.30;;
32130;SDS011;18639;50.716;7.086;2023-05-20T09:26:26;2.47;;;1.45;;
32130;SDS011;18639;50.716;7.086;2023-05-20T09:28:54;1.85;;;1.15;;
32130;SDS011;18639;50.716;7.086;2023-05-20T09:31:21;2.10;;;1.40;;
32130;SDS011;18639;50.716;7.086;2023-05-20T09:33:50;1.75;;;1.20;;
32130;SDS011;18639;50.716;7.086;2023-05-20T09:36:16;2.70;;;1.30;;
32130;SDS011;18639;50.716;7.086;2023-05-20T09:38:43;2.03;;;1.30;;
32130;SDS011;18639;50.716;7.086;2023-05-20T09:41:12;1.55;;;1.20;;
32130;SDS011;18639;50.716;7.086;2023-05-20T09:43:39;3.00;;;1.58;;
32130;SDS011;18639;50.716;7.086;2023-05-20T09:46:05;1.98;;;1.40;;
32130;SDS011;18639;50.716;7.086;2023-05-20T09:48:32;2.47;;;1.40;;
32130;SDS011;18639;50.716;7.086;2023-05-20T09:51:00;2.10;;;1.40;;
32130;SDS011;18639;50.716;7.086;2023-05-20T09:53:26;2.30;;;1.00;;
32130;SDS011;18639;50.716;7.086;2023-05-20T09:55:52;3.15;;;1.50;;
32130;SDS011;18639;50.716;7.086;2023-05-20T09:58:19;2.45;;;1.20;;
32130;SDS011;18639;50.716;7.086;2023-05-20T10:00:44;2.60;;;1.40;;
32130;SDS011;18639;50.716;7.086;2023-05-20T10:03:10;2.40;;;1.30;;
32130;SDS011;18639;50.716;7.086;2023-05-20T10:05:37;1.95;;;1.20;;
32130;SDS011;18639;50.716;7.086;2023-05-20T10:11:20;2.30;;;1.20;;
32130;SDS011;18639;50.716;7.086;2023-05-20T10:17:11;3.15;;;1.25;;
32130;SDS011;18639;50.716;7.086;2023-05-20T10:19:43;1.98;;;1.40;;
32130;SDS011;18639;50.716;7.086;2023-05-20T10:22:09;4.63;;;1.55;;
32130;SDS011;18639;50.716;7.086;2023-05-20T10:24:39;2.15;;;1.30;;
32130;SDS011;18639;50.716;7.086;2023-05-20T10:27:09;1.75;;;1.35;;
32130;SDS011;18639;50.716;7.086;2023-05-20T10:29:42;2.53;;;1.42;;
32130;SDS011;18639;50.716;7.086;2023-05-20T10:32:26;2.60;;;1.58;;
32130;SDS011;18639;50.716;7.086;2023-05-20T10:35:03;2.25;;;1.25;;
32130;SDS011;18639;50.716;7.086;2023-05-20T10:37:38;2.63;;;1.60;;
32130;SDS011;18639;50.716;7.086;2023-05-20T10:40:09;2.75;;;1.30;;
32130;SDS011;18639;50.716;7.086;2023-05-20T10:42:36;3.28;;;1.35;;
32130;SDS011;18639;50.716;7.086;2023-05-20T10:45:02;2.90;;;1.80;;
32130;SDS011;18639;50.716;7.086;2023-05-20T10:47:28;3.00;;;1.70;;
32130;SDS011;18639;50.716;7.086;2023-05-20T10:49:54;4.55;;;1.33;;
32130;SDS011;18639;50.716;7.086;2023-05-20T10:52:20;2.95;;;1.38;;
32130;SDS011;18639;50.716;7.086;2023-05-20T10:54:46;2.47;;;1.45;;
32130;SDS011;18639;50.716;7.086;2023-05-20T10:57:12;3.28;;;1.70;;
32130;SDS011;18639;50.716;7.086;2023-05-20T10:59:38;2.40;;;1.42;;
32130;SDS011;18639;50.716;7.086;2023-05-20T11:02:03;1.70;;;1.20;;
32130;SDS011;18639;50.716;7.086;2023-05-20T11:04:29;2.90;;;1.65;;
32130;SDS011;18639;50.716;7.086;2023-05-20T11:06:55;3.28;;;2.00;;
32130;SDS011;18639;50.716;7.086;2023-05-20T11:09:22;2.95;;;1.55;;
32130;SDS011;18639;50.716;7.086;2023-05-20T11:11:48;2.15;;;1.58;;
32130;SDS011;18639;50.716;7.086;2023-05-20T11:14:14;3.25;;;1.65;;
32130;SDS011;18639;50.716;7.086;2023-05-20T11:16:42;4.78;;;2.33;;
32130;SDS011;18639;50.716;7.086;2023-05-20T11:19:07;3.30;;;1.73;;
32130;SDS011;18639;50.716;7.086;2023-05-20T11:21:33;3.17;;;1.60;;
32130;SDS011;18639;50.716;7.086;2023-05-20T11:23:58;2.53;;;1.50;;
32130;SDS011;18639;50.716;7.086;2023-05-20T11:26:24;3.03;;;1.55;;
32130;SDS011;18639;50.716;7.086;2023-05-20T11:28:49;2.75;;;1.50;;
32130;SDS011;18639;50.716;7.086;2023-05-20T11:31:15;4.40;;;1.80;;
32130;SDS011;18639;50.716;7.086;2023-05-20T11:33:42;2.63;;;1.73;;
32130;SDS011;18639;50.716;7.086;2023-05-20T11:36:08;2.53;;;1.50;;
32130;SDS011;18639;50.716;7.086;2023-05-20T11:38:33;2.80;;;1.55;;
32130;SDS011;18639;50.716;7.086;2023-05-20T11:40:59;2.63;;;1.40;;
32130;SDS011;18639;50.716;7.086;2023-05-20T11:43:24;4.75;;;1.70;;
32130;SDS011;18639;50.716;7.086;2023-05-20T11:45:53;3.33;;;1.80;;
32130;SDS011;18639;50.716;7.086;2023-05-20T11:48:20;3.38;;;1.80;;
32130;SDS011;18639;50.716;7.086;2023-05-20T11:50:46;1.55;;;1.17;;
32130;SDS011;18639;50.716;7.086;2023-05-20T11:53:19;3.22;;;1.60;;
32130;SDS011;18639;50.716;7.086;2023-05-20T11:55:51;5.55;;;1.90;;
32130;SDS011;18639;50.716;7.086;2023-05-20T11:58:18;3.55;;;1.67;;
32130;SDS011;18639;50.716;7.086;2023-05-20T12:00:45;2.00;;;1.25;;
32130;SDS011;18639;50.716;7.086;2023-05-20T12:03:11;3.38;;;1.88;;
32130;SDS011;18639;50.716;7.086;2023-05-20T12:05:36;3.42;;;1.48;;
32130;SDS011;18639;50.716;7.086;2023-05-20T12:08:02;3.67;;;1.75;;
32130;SDS011;18639;50.716;7.086;2023-05-20T12:10:28;2.80;;;1.50;;
32130;SDS011;18639;50.716;7.086;2023-05-20T12:12:53;2.47;;;1.60;;
32130;SDS011;18639;50.716;7.086;2023-05-20T12:15:18;2.83;;;1.88;;
32130;SDS011;18639;50.716;7.086;2023-05-20T12:17:47;2.33;;;1.40;;
32130;SDS011;18639;50.716;7.086;2023-05-20T12:20:14;2.10;;;1.60;;
32130;SDS011;18639;50.716;7.086;2023-05-20T12:22:41;3.05;;;1.60;;
32130;SDS011;18639;50.716;7.086;2023-05-20T12:25:09;2.70;;;1.55;;
32130;SDS011;18639;50.716;7.086;2023-05-20T12:27:36;2.65;;;1.73;;
32130;SDS011;18639;50.716;7.086;2023-05-20T12:30:01;2.90;;;1.70;;
32130;SDS011;18639;50.716;7.086;2023-05-20T12:32:26;4.13;;;1.92;;
32130;SDS011;18639;50.716;7.086;2023-05-20T12:34:51;3.33;;;1.50;;
32130;SDS011;18639;50.716;7.086;2023-05-20T12:37:17;2.45;;;1.60;;
32130;SDS011;18639;50.716;7.086;2023-05-20T12:39:42;3.17;;;1.73;;
32130;SDS011;18639;50.716;7.086;2023-05-20T12:42:07;2.67;;;1.60;;
32130;SDS011;18639;50.716;7.086;2023-05-20T12:44:33;2.15;;;1.52;;
32130;SDS011;18639;50.716;7.086;2023-05-20T12:46:58;4.97;;;2.03;;
32130;SDS011;18639;50.716;7.086;2023-05-20T12:49:23;10.10;;;2.40;;
32130;SDS011;18639;50.716;7.086;2023-05-20T12:51:48;2.60;;;1.40;;
32130;SDS011;18639;50.716;7.086;2023-05-20T12:54:14;2.95;;;1.80;;
32130;SDS011;18639;50.716;7.086;2023-05-20T12:56:39;2.78;;;1.60;;
32130;SDS011;18639;50.716;7.086;2023-05-20T12:59:05;3.28;;;1.58;;
32130;SDS011;18639;50.716;7.086;2023-05-20T13:01:30;2.60;;;1.58;;
32130;SDS011;18639;50.716;7.086;2023-05-20T13:03:55;2.72;;;1.58;;
32130;SDS011;18639;50.716;7.086;2023-05-20T13:06:21;2.28;;;1.50;;
32130;SDS011;18639;50.716;7.086;2023-05-20T13:08:46;3.88;;;2.10;;
32130;SDS011;18639;50.716;7.086;2023-05-20T13:11:11;2.83;;;1.67;;
32130;SDS011;18639;50.716;7.086;2023-05-20T13:13:36;3.85;;;1.75;;
32130;SDS011;18639;50.716;7.086;2023-05-20T13:16:02;2.60;;;1.40;;
32130;SDS011;18639;50.716;7.086;2023-05-20T13:18:27;2.92;;;1.60;;
32130;SDS011;18639;50.716;7.086;2023-05-20T13:20:53;3.00;;;1.90;;
32130;SDS011;18639;50.716;7.086;2023-05-20T13:23:18;3.15;;;1.88;;
32130;SDS011;18639;50.716;7.086;2023-05-20T13:25:43;2.10;;;1.38;;
32130;SDS011;18639;50.716;7.086;2023-05-20T13:28:09;2.03;;;1.33;;
32130;SDS011;18639;50.716;7.086;2023-05-20T13:30:36;2.53;;;1.45;;
32130;SDS011;18639;50.716;7.086;2023-05-20T13:33:01;2.75;;;1.35;;
32130;SDS011;18639;50.716;7.086;2023-05-20T13:35:27;2.67;;;1.65;;
32130;SDS011;18639;50.716;7.086;2023-05-20T13:37:52;2.78;;;1.50;;
32130;SDS011;18639;50.716;7.086;2023-05-20T13:40:17;3.15;;;1.83;;
32130;SDS011;18639;50.716;7.086;2023-05-20T13:42:42;2.30;;;1.60;;
32130;SDS011;18639;50.716;7.086;2023-05-20T13:45:08;2.75;;;1.45;;
32130;SDS011;18639;50.716;7.086;2023-05-20T13:47:33;2.22;;;1.38;;
32130;SDS011;18639;50.716;7.086;2023-05-20T13:49:59;3.22;;;1.70;;
32130;SDS011;18639;50.716;7.086;2023-05-20T13:52:24;3.22;;;1.58;;
32130;SDS011;18639;50.716;7.086;2023-05-20T13:54:49;4.00;;;1.70;;
32130;SDS011;18639;50.716;7.086;2023-05-20T13:57:15;2.50;;;1.63;;
32130;SDS011;18639;50.716;7.086;2023-05-20T13:59:40;3.70;;;1.45;;
32130;SDS011;18639;50.716;7.086;2023-05-20T14:02:06;3.05;;;1.83;;
32130;SDS011;18639;50.716;7.086;2023-05-20T14:04:31;3.42;;;1.60;;
32130;SDS011;18639;50.716;7.086;2023-05-20T14:07:02;2.10;;;1.35;;
32130;SDS011;18639;50.716;7.086;2023-05-20T14:09:28;3.33;;;1.85;;
32130;SDS011;18639;50.716;7.086;2023-05-20T14:11:53;3.20;;;1.67;;
32130;SDS011;18639;50.716;7.086;2023-05-20T14:14:19;2.15;;;1.30;;
32130;SDS011;18639;50.716;7.086;2023-05-20T14:16:44;2.65;;;1.65;;
32130;SDS011;18639;50.716;7.086;2023-05-20T14:19:10;2.33;;;1.52;;
32130;SDS011;18639;50.716;7.086;2023-05-20T14:21:35;2.97;;;1.50;;
32130;SDS011;18639;50.716;7.086;2023-05-20T14:24:00;3.00;;;1.75;;
32130;SDS011;18639;50.716;7.086;2023-05-20T14:26:26;2.58;;;1.55;;
32130;SDS011;18639;50.716;7.086;2023-05-20T14:28:51;3.03;;;1.63;;
32130;SDS011;18639;50.716;7.086;2023-05-20T14:31:16;2.72;;;1.42;;
32130;SDS011;18639;50.716;7.086;2023-05-20T14:33:41;2.78;;;1.60;;
32130;SDS011;18639;50.716;7.086;2023-05-20T14:36:07;2.63;;;1.60;;
32130;SDS011;18639;50.716;7.086;2023-05-20T14:38:32;2.72;;;1.63;;
32130;SDS011;18639;50.716;7.086;2023-05-20T14:40:58;4.85;;;2.08;;
32130;SDS011;18639;50.716;7.086;2023-05-20T14:43:23;2.78;;;1.80;;
32130;SDS011;18639;50.716;7.086;2023-05-20T14:45:48;3.60;;;2.00;;
32130;SDS011;18639;50.716;7.086;2023-05-20T14:48:13;2.70;;;1.48;;
32130;SDS011;18639;50.716;7.086;2023-05-20T14:50:39;2.72;;;1.67;;
32130;SDS011;18639;50.716;7.086;2023-05-20T14:53:04;3.38;;;1.52;;